sensor_id;sensor_type;location;lat;lon;timestamp;P1;durP1;ratioP1;P2;durP2;ratioP2
1693;SDS011;844;47.058;15.472;2023-04-09T00:00:15;19.00;;;16.60;;
1693;SDS011;844;47.058;15.472;2023-04-09T00:02:45;18.73;;;16.73;;
1693;SDS011;844;47.058;15.472;2023-04-09T00:05:16;20.20;;;18.20;;
1693;SDS011;844;47.058;15.472;2023-04-09T00:07:47;16.90;;;15.30;;
1693;SDS011;844;47.058;15.472;2023-04-09T00:10:19;19.23;;;17.53;;
1693;SDS011;844;47.058;15.472;2023-04-09T00:12:51;16.10;;;14.60;;
1693;SDS011;844;47.058;15.472;2023-04-09T00:15:21;16.93;;;15.23;;
1693;SDS011;844;47.058;15.472;2023-04-09T00:17:57;17.30;;;15.70;;
1693;SDS011;844;47.058;15.472;2023-04-09T00:20:28;15.50;;;13.90;;
1693;SDS011;844;47.058;15.472;2023-04-09T00:22:59;19.13;;;17.37;;
1693;SDS011;844;47.058;15.472;2023-04-09T00:25:31;16.83;;;15.10;;
1693;SDS011;844;47.058;15.472;2023-04-09T00:28:01;15.87;;;14.37;;
1693;SDS011;844;47.058;15.472;2023-04-09T00:30:32;16.70;;;15.00;;
1693;SDS011;844;47.058;15.472;2023-04-09T00:33:03;16.27;;;14.67;;
1693;SDS011;844;47.058;15.472;2023-04-09T00:35:34;16.30;;;14.70;;
1693;SDS011;844;47.058;15.472;2023-04-09T00:38:04;16.30;;;14.80;;
1693;SDS011;844;47.058;15.472;2023-04-09T00:40:36;14.63;;;13.27;;
1693;SDS011;844;47.058;15.472;2023-04-09T00:43:07;17.30;;;15.57;;
1693;SDS011;844;47.058;15.472;2023-04-09T00:45:38;15.57;;;14.13;;
1693;SDS011;844;47.058;15.472;2023-04-09T00:48:10;15.67;;;14.27;;
1693;SDS011;844;47.058;15.472;2023-04-09T00:50:41;15.93;;;14.43;;
1693;SDS011;844;47.058;15.472;2023-04-09T00:53:11;15.67;;;14.10;;
1693;SDS011;844;47.058;15.472;2023-04-09T00:55:46;13.80;;;12.60;;
1693;SDS011;844;47.058;15.472;2023-04-09T00:58:17;13.50;;;12.30;;
1693;SDS011;844;47.058;15.472;2023-04-09T01:00:49;15.00;;;13.60;;
1693;SDS011;844;47.058;15.472;2023-04-09T01:03:19;14.03;;;12.57;;
1693;SDS011;844;47.058;15.472;2023-04-09T01:05:53;13.97;;;12.67;;
1693;SDS011;844;47.058;15.472;2023-04-09T01:08:30;15.47;;;13.97;;
1693;SDS011;844;47.058;15.472;2023-04-09T01:11:09;14.33;;;13.03;;
1693;SDS011;844;47.058;15.472;2023-04-09T01:13:48;14.40;;;13.10;;
1693;SDS011;844;47.058;15.472;2023-04-09T01:16:22;15.00;;;13.60;;
1693;SDS011;844;47.058;15.472;2023-04-09T01:18:55;15.90;;;14.50;;
1693;SDS011;844;47.058;15.472;2023-04-09T01:21:29;12.60;;;11.47;;
1693;SDS011;844;47.058;15.472;2023-04-09T01:24:04;14.70;;;13.40;;
1693;SDS011;844;47.058;15.472;2023-04-09T01:26:50;14.43;;;13.00;;
1693;SDS011;844;47.058;15.472;2023-04-09T01:29:26;15.13;;;13.83;;
1693;SDS011;844;47.058;15.472;2023-04-09T01:31:59;14.43;;;13.20;;
1693;SDS011;844;47.058;15.472;2023-04-09T01:34:31;15.03;;;13.40;;
1693;SDS011;844;47.058;15.472;2023-04-09T01:37:02;15.10;;;13.60;;
1693;SDS011;844;47.058;15.472;2023-04-09T01:39:33;14.83;;;13.37;;
1693;SDS011;844;47.058;15.472;2023-04-09T01:42:05;14.33;;;12.83;;
1693;SDS011;844;47.058;15.472;2023-04-09T01:44:41;13.03;;;11.80;;
1693;SDS011;844;47.058;15.472;2023-04-09T01:47:12;15.37;;;13.87;;
1693;SDS011;844;47.058;15.472;2023-04-09T01:49:43;14.93;;;13.53;;
1693;SDS011;844;47.058;15.472;2023-04-09T01:52:14;14.57;;;13.27;;
1693;SDS011;844;47.058;15.472;2023-04-09T01:54:44;16.13;;;13.53;;
1693;SDS011;844;47.058;15.472;2023-04-09T01:57:14;14.60;;;13.40;;
1693;SDS011;844;47.058;15.472;2023-04-09T01:59:45;14.23;;;12.90;;
1693;SDS011;844;47.058;15.472;2023-04-09T02:02:17;14.13;;;12.87;;
1693;SDS011;844;47.058;15.472;2023-04-09T02:04:52;12.80;;;11.70;;
1693;SDS011;844;47.058;15.472;2023-04-09T02:07:26;15.43;;;14.03;;
1693;SDS011;844;47.058;15.472;2023-04-09T02:10:01;15.70;;;14.10;;
1693;SDS011;844;47.058;15.472;2023-04-09T02:12:32;16.10;;;14.70;;
1693;SDS011;844;47.058;15.472;2023-04-09T02:15:08;14.47;;;13.10;;
1693;SDS011;844;47.058;15.472;2023-04-09T02:17:39;15.67;;;14.10;;
1693;SDS011;844;47.058;15.472;2023-04-09T02:20:10;16.23;;;14.83;;
1693;SDS011;844;47.058;15.472;2023-04-09T02:22:41;14.37;;;12.97;;
1693;SDS011;844;47.058;15.472;2023-04-09T02:25:11;16.03;;;14.53;;
1693;SDS011;844;47.058;15.472;2023-04-09T02:27:42;17.30;;;15.20;;
1693;SDS011;844;47.058;15.472;2023-04-09T02:30:14;16.23;;;14.70;;
1693;SDS011;844;47.058;15.472;2023-04-09T02:32:44;16.30;;;14.70;;
1693;SDS011;844;47.058;15.472;2023-04-09T02:35:15;16.30;;;14.83;;
1693;SDS011;844;47.058;15.472;2023-04-09T02:37:45;15.67;;;14.07;;
1693;SDS011;844;47.058;15.472;2023-04-09T02:40:16;17.97;;;16.27;;
1693;SDS011;844;47.058;15.472;2023-04-09T02:42:49;15.30;;;13.80;;
1693;SDS011;844;47.058;15.472;2023-04-09T02:45:22;16.03;;;14.50;;
1693;SDS011;844;47.058;15.472;2023-04-09T02:47:52;15.47;;;13.90;;
1693;SDS011;844;47.058;15.472;2023-04-09T02:50:22;15.87;;;14.30;;
1693;SDS011;844;47.058;15.472;2023-04-09T02:52:56;16.17;;;14.73;;
1693;SDS011;844;47.058;15.472;2023-04-09T02:55:26;16.87;;;15.27;;
1693;SDS011;844;47.058;15.472;2023-04-09T02:57:56;15.67;;;13.80;;
1693;SDS011;844;47.058;15.472;2023-04-09T03:00:27;17.93;;;15.00;;
1693;SDS011;844;47.058;15.472;2023-04-09T03:02:58;15.40;;;14.00;;
1693;SDS011;844;47.058;15.472;2023-04-09T03:05:28;16.17;;;14.67;;
1693;SDS011;844;47.058;15.472;2023-04-09T03:08:01;18.57;;;16.80;;
1693;SDS011;844;47.058;15.472;2023-04-09T03:10:32;15.60;;;14.10;;
1693;SDS011;844;47.058;15.472;2023-04-09T03:13:02;14.60;;;13.40;;
1693;SDS011;844;47.058;15.472;2023-04-09T03:15:34;15.60;;;14.20;;
1693;SDS011;844;47.058;15.472;2023-04-09T03:18:08;17.60;;;15.80;;
1693;SDS011;844;47.058;15.472;2023-04-09T03:20:38;14.40;;;13.00;;
1693;SDS011;844;47.058;15.472;2023-04-09T03:23:08;16.10;;;14.50;;
1693;SDS011;844;47.058;15.472;2023-04-09T03:25:40;15.20;;;13.80;;
1693;SDS011;844;47.058;15.472;2023-04-09T03:28:10;16.07;;;14.37;;
1693;SDS011;844;47.058;15.472;2023-04-09T03:30:42;14.43;;;13.10;;
1693;SDS011;844;47.058;15.472;2023-04-09T03:33:12;17.30;;;15.30;;
1693;SDS011;844;47.058;15.472;2023-04-09T03:35:43;15.37;;;13.87;;
1693;SDS011;844;47.058;15.472;2023-04-09T03:38:13;15.07;;;13.67;;
1693;SDS011;844;47.058;15.472;2023-04-09T03:40:44;14.43;;;13.13;;
1693;SDS011;844;47.058;15.472;2023-04-09T03:43:16;16.70;;;14.77;;
1693;SDS011;844;47.058;15.472;2023-04-09T03:45:49;16.53;;;15.03;;
1693;SDS011;844;47.058;15.472;2023-04-09T03:48:19;17.57;;;15.93;;
1693;SDS011;844;47.058;15.472;2023-04-09T03:50:49;14.93;;;13.50;;
1693;SDS011;844;47.058;15.472;2023-04-09T03:53:19;16.60;;;15.10;;
1693;SDS011;844;47.058;15.472;2023-04-09T03:55:50;15.87;;;14.33;;
1693;SDS011;844;47.058;15.472;2023-04-09T03:58:21;16.70;;;15.20;;
1693;SDS011;844;47.058;15.472;2023-04-09T04:00:54;17.60;;;16.00;;
1693;SDS011;844;47.058;15.472;2023-04-09T04:03:24;16.80;;;15.30;;
1693;SDS011;844;47.058;15.472;2023-04-09T04:05:58;15.77;;;14.17;;
1693;SDS011;844;47.058;15.472;2023-04-09T04:08:30;15.87;;;14.33;;
1693;SDS011;844;47.058;15.472;2023-04-09T04:11:04;16.13;;;14.53;;
1693;SDS011;844;47.058;15.472;2023-04-09T04:13:34;14.83;;;13.33;;
1693;SDS011;844;47.058;15.472;2023-04-09T04:16:08;16.30;;;14.63;;
1693;SDS011;844;47.058;15.472;2023-04-09T04:18:38;15.57;;;14.03;;
1693;SDS011;844;47.058;15.472;2023-04-09T04:21:11;15.30;;;13.83;;
1693;SDS011;844;47.058;15.472;2023-04-09T04:23:43;14.83;;;13.30;;
1693;SDS011;844;47.058;15.472;2023-04-09T04:26:13;16.37;;;14.87;;
1693;SDS011;844;47.058;15.472;2023-04-09T04:28:43;14.73;;;13.27;;
1693;SDS011;844;47.058;15.472;2023-04-09T04:31:14;16.90;;;15.23;;
1693;SDS011;844;47.058;15.472;2023-04-09T04:33:45;16.80;;;15.17;;
1693;SDS011;844;47.058;15.472;2023-04-09T04:36:16;16.07;;;14.47;;
1693;SDS011;844;47.058;15.472;2023-04-09T04:38:46;17.20;;;15.50;;
1693;SDS011;844;47.058;15.472;2023-04-09T04:41:18;16.30;;;13.93;;
1693;SDS011;844;47.058;15.472;2023-04-09T04:43:48;16.33;;;14.73;;
1693;SDS011;844;47.058;15.472;2023-04-09T04:46:20;14.00;;;12.70;;
1693;SDS011;844;47.058;15.472;2023-04-09T04:48:51;15.10;;;13.60;;
1693;SDS011;844;47.058;15.472;2023-04-09T04:51:23;14.60;;;13.10;;
1693;SDS011;844;47.058;15.472;2023-04-09T04:53:54;14.77;;;13.40;;
1693;SDS011;844;47.058;15.472;2023-04-09T04:56:25;15.13;;;13.63;;
1693;SDS011;844;47.058;15.472;2023-04-09T04:58:55;15.90;;;13.60;;
1693;SDS011;844;47.058;15.472;2023-04-09T05:01:27;13.17;;;11.90;;
1693;SDS011;844;47.058;15.472;2023-04-09T05:03:58;14.40;;;12.90;;
1693;SDS011;844;47.058;15.472;2023-04-09T05:06:29;16.10;;;14.60;;
1693;SDS011;844;47.058;15.472;2023-04-09T05:09:00;14.83;;;13.47;;
1693;SDS011;844;47.058;15.472;2023-04-09T05:11:30;15.20;;;13.63;;
1693;SDS011;844;47.058;15.472;2023-04-09T05:14:01;13.53;;;12.20;;
1693;SDS011;844;47.058;15.472;2023-04-09T05:16:34;13.47;;;12.00;;
1693;SDS011;844;47.058;15.472;2023-04-09T05:19:05;16.60;;;14.93;;
1693;SDS011;844;47.058;15.472;2023-04-09T05:21:35;16.30;;;14.87;;
1693;SDS011;844;47.058;15.472;2023-04-09T05:24:05;15.00;;;13.53;;
1693;SDS011;844;47.058;15.472;2023-04-09T05:26:36;14.33;;;12.83;;
1693;SDS011;844;47.058;15.472;2023-04-09T05:29:06;15.37;;;14.07;;
1693;SDS011;844;47.058;15.472;2023-04-09T05:31:38;16.03;;;14.53;;
1693;SDS011;844;47.058;15.472;2023-04-09T05:34:09;14.50;;;13.10;;
1693;SDS011;844;47.058;15.472;2023-04-09T05:36:39;15.63;;;14.13;;
1693;SDS011;844;47.058;15.472;2023-04-09T05:39:09;14.47;;;13.07;;
1693;SDS011;844;47.058;15.472;2023-04-09T05:41:40;12.73;;;11.53;;
1693;SDS011;844;47.058;15.472;2023-04-09T05:44:11;13.80;;;12.30;;
1693;SDS011;844;47.058;15.472;2023-04-09T05:46:44;15.30;;;13.70;;
1693;SDS011;844;47.058;15.472;2023-04-09T05:49:16;13.23;;;12.00;;
1693;SDS011;844;47.058;15.472;2023-04-09T05:51:48;16.90;;;15.40;;
1693;SDS011;844;47.058;15.472;2023-04-09T05:54:18;13.70;;;12.30;;
1693;SDS011;844;47.058;15.472;2023-04-09T05:56:49;13.37;;;11.97;;
1693;SDS011;844;47.058;15.472;2023-04-09T05:59:21;14.40;;;12.97;;
1693;SDS011;844;47.058;15.472;2023-04-09T06:01:53;15.30;;;13.37;;
1693;SDS011;844;47.058;15.472;2023-04-09T06:04:24;15.53;;;13.97;;
1693;SDS011;844;47.058;15.472;2023-04-09T06:06:53;12.73;;;11.53;;
1693;SDS011;844;47.058;15.472;2023-04-09T06:09:27;13.60;;;11.63;;
1693;SDS011;844;47.058;15.472;2023-04-09T06:11:57;13.40;;;12.20;;
1693;SDS011;844;47.058;15.472;2023-04-09T06:14:28;13.60;;;12.27;;
1693;SDS011;844;47.058;15.472;2023-04-09T06:17:01;14.23;;;12.53;;
1693;SDS011;844;47.058;15.472;2023-04-09T06:19:31;14.20;;;12.60;;
1693;SDS011;844;47.058;15.472;2023-04-09T06:22:02;13.30;;;12.10;;
1693;SDS011;844;47.058;15.472;2023-04-09T06:24:33;12.10;;;10.90;;
1693;SDS011;844;47.058;15.472;2023-04-09T06:27:03;11.97;;;10.73;;
1693;SDS011;844;47.058;15.472;2023-04-09T06:29:34;13.27;;;11.87;;
1693;SDS011;844;47.058;15.472;2023-04-09T06:32:07;10.37;;;9.27;;
1693;SDS011;844;47.058;15.472;2023-04-09T06:34:38;12.00;;;10.80;;
1693;SDS011;844;47.058;15.472;2023-04-09T06:37:08;10.30;;;8.83;;
1693;SDS011;844;47.058;15.472;2023-04-09T06:39:38;11.47;;;10.17;;
1693;SDS011;844;47.058;15.472;2023-04-09T06:42:24;11.40;;;10.33;;
1693;SDS011;844;47.058;15.472;2023-04-09T06:44:54;12.73;;;11.53;;
1693;SDS011;844;47.058;15.472;2023-04-09T06:47:26;12.50;;;11.33;;
1693;SDS011;844;47.058;15.472;2023-04-09T06:49:56;12.20;;;10.83;;
1693;SDS011;844;47.058;15.472;2023-04-09T06:52:27;13.47;;;12.17;;
1693;SDS011;844;47.058;15.472;2023-04-09T06:54:59;13.03;;;11.77;;
1693;SDS011;844;47.058;15.472;2023-04-09T06:57:29;14.97;;;12.07;;
1693;SDS011;844;47.058;15.472;2023-04-09T07:00:00;13.43;;;11.97;;
1693;SDS011;844;47.058;15.472;2023-04-09T07:02:34;15.07;;;12.83;;
1693;SDS011;844;47.058;15.472;2023-04-09T07:05:05;15.00;;;13.47;;
1693;SDS011;844;47.058;15.472;2023-04-09T07:07:37;14.53;;;13.13;;
1693;SDS011;844;47.058;15.472;2023-04-09T07:10:08;13.00;;;11.80;;
1693;SDS011;844;47.058;15.472;2023-04-09T07:12:39;14.07;;;12.53;;
1693;SDS011;844;47.058;15.472;2023-04-09T07:15:09;12.63;;;11.43;;
1693;SDS011;844;47.058;15.472;2023-04-09T07:17:42;14.13;;;12.73;;
1693;SDS011;844;47.058;15.472;2023-04-09T07:20:12;12.67;;;11.40;;
1693;SDS011;844;47.058;15.472;2023-04-09T07:22:42;12.70;;;11.60;;
1693;SDS011;844;47.058;15.472;2023-04-09T07:25:13;13.37;;;12.17;;
1693;SDS011;844;47.058;15.472;2023-04-09T07:27:43;13.67;;;12.27;;
1693;SDS011;844;47.058;15.472;2023-04-09T07:30:13;13.07;;;11.87;;
1693;SDS011;844;47.058;15.472;2023-04-09T07:32:46;12.63;;;11.33;;
1693;SDS011;844;47.058;15.472;2023-04-09T07:35:17;13.27;;;11.53;;
1693;SDS011;844;47.058;15.472;2023-04-09T07:37:49;12.80;;;11.50;;
1693;SDS011;844;47.058;15.472;2023-04-09T07:40:20;11.57;;;10.37;;
1693;SDS011;844;47.058;15.472;2023-04-09T07:42:50;11.27;;;10.27;;
1693;SDS011;844;47.058;15.472;2023-04-09T07:45:22;11.53;;;10.43;;
1693;SDS011;844;47.058;15.472;2023-04-09T07:47:55;11.47;;;10.30;;
1693;SDS011;844;47.058;15.472;2023-04-09T07:50:26;11.67;;;10.57;;
1693;SDS011;844;47.058;15.472;2023-04-09T07:52:57;12.10;;;11.00;;
1693;SDS011;844;47.058;15.472;2023-04-09T07:55:27;12.07;;;10.93;;
1693;SDS011;844;47.058;15.472;2023-04-09T07:57:57;9.83;;;8.63;;
1693;SDS011;844;47.058;15.472;2023-04-09T08:00:28;9.80;;;8.90;;
1693;SDS011;844;47.058;15.472;2023-04-09T08:03:00;9.70;;;8.00;;
1693;SDS011;844;47.058;15.472;2023-04-09T08:05:31;11.13;;;9.83;;
1693;SDS011;844;47.058;15.472;2023-04-09T08:08:04;11.07;;;10.07;;
1693;SDS011;844;47.058;15.472;2023-04-09T08:10:35;11.70;;;10.50;;
1693;SDS011;844;47.058;15.472;2023-04-09T08:13:06;10.87;;;9.27;;
1693;SDS011;844;47.058;15.472;2023-04-09T08:15:38;10.33;;;9.33;;
1693;SDS011;844;47.058;15.472;2023-04-09T08:18:10;9.63;;;8.73;;
1693;SDS011;844;47.058;15.472;2023-04-09T08:20:42;9.73;;;8.83;;
1693;SDS011;844;47.058;15.472;2023-04-09T08:23:14;11.27;;;10.07;;
1693;SDS011;844;47.058;15.472;2023-04-09T08:25:45;12.37;;;10.50;;
1693;SDS011;844;47.058;15.472;2023-04-09T08:28:15;11.37;;;10.17;;
1693;SDS011;844;47.058;15.472;2023-04-09T08:30:45;10.37;;;9.40;;
1693;SDS011;844;47.058;15.472;2023-04-09T08:33:18;10.30;;;9.30;;
1693;SDS011;844;47.058;15.472;2023-04-09T08:35:49;10.50;;;9.33;;
1693;SDS011;844;47.058;15.472;2023-04-09T08:38:19;10.40;;;9.40;;
1693;SDS011;844;47.058;15.472;2023-04-09T08:40:49;9.17;;;8.00;;
1693;SDS011;844;47.058;15.472;2023-04-09T08:43:20;10.20;;;9.20;;
1693;SDS011;844;47.058;15.472;2023-04-09T08:46:13;9.17;;;8.27;;
1693;SDS011;844;47.058;15.472;2023-04-09T08:48:46;10.40;;;9.40;;
1693;SDS011;844;47.058;15.472;2023-04-09T08:51:18;9.97;;;9.07;;
1693;SDS011;844;47.058;15.472;2023-04-09T08:53:54;10.33;;;9.33;;
1693;SDS011;844;47.058;15.472;2023-04-09T08:56:30;10.37;;;9.47;;
1693;SDS011;844;47.058;15.472;2023-04-09T08:59:00;11.77;;;10.67;;
1693;SDS011;844;47.058;15.472;2023-04-09T09:01:31;12.00;;;10.73;;
1693;SDS011;844;47.058;15.472;2023-04-09T09:04:05;10.83;;;9.83;;
1693;SDS011;844;47.058;15.472;2023-04-09T09:06:36;12.20;;;11.00;;
1693;SDS011;844;47.058;15.472;2023-04-09T09:09:09;10.97;;;9.93;;
1693;SDS011;844;47.058;15.472;2023-04-09T09:11:41;10.30;;;9.30;;
1693;SDS011;844;47.058;15.472;2023-04-09T09:14:13;11.30;;;10.17;;
1693;SDS011;844;47.058;15.472;2023-04-09T09:19:33;11.60;;;10.47;;
1693;SDS011;844;47.058;15.472;2023-04-09T09:22:04;11.10;;;10.00;;
1693;SDS011;844;47.058;15.472;2023-04-09T09:24:38;12.00;;;10.80;;
1693;SDS011;844;47.058;15.472;2023-04-09T09:27:30;11.83;;;10.73;;
1693;SDS011;844;47.058;15.472;2023-04-09T09:30:04;10.30;;;9.40;;
1693;SDS011;844;47.058;15.472;2023-04-09T09:32:40;10.57;;;9.60;;
1693;SDS011;844;47.058;15.472;2023-04-09T09:35:13;11.33;;;10.23;;
1693;SDS011;844;47.058;15.472;2023-04-09T09:37:44;10.60;;;9.70;;
1693;SDS011;844;47.058;15.472;2023-04-09T09:40:25;10.30;;;9.40;;
1693;SDS011;844;47.058;15.472;2023-04-09T09:42:56;10.93;;;9.97;;
1693;SDS011;844;47.058;15.472;2023-04-09T09:45:26;9.60;;;8.80;;
1693;SDS011;844;47.058;15.472;2023-04-09T09:47:58;9.90;;;9.00;;
1693;SDS011;844;47.058;15.472;2023-04-09T09:50:33;8.83;;;8.03;;
1693;SDS011;844;47.058;15.472;2023-04-09T09:53:04;8.00;;;7.20;;
1693;SDS011;844;47.058;15.472;2023-04-09T09:55:37;8.07;;;6.63;;
1693;SDS011;844;47.058;15.472;2023-04-09T09:58:11;8.57;;;7.83;;
1693;SDS011;844;47.058;15.472;2023-04-09T10:00:46;7.70;;;7.10;;
1693;SDS011;844;47.058;15.472;2023-04-09T10:03:19;9.10;;;8.30;;
1693;SDS011;844;47.058;15.472;2023-04-09T10:05:52;9.50;;;8.57;;
1693;SDS011;844;47.058;15.472;2023-04-09T10:08:23;9.20;;;8.03;;
1693;SDS011;844;47.058;15.472;2023-04-09T10:10:54;8.13;;;7.33;;
1693;SDS011;844;47.058;15.472;2023-04-09T10:13:25;6.70;;;6.10;;
1693;SDS011;844;47.058;15.472;2023-04-09T10:16:02;7.93;;;7.23;;
1693;SDS011;844;47.058;15.472;2023-04-09T10:18:35;9.20;;;7.73;;
1693;SDS011;844;47.058;15.472;2023-04-09T10:21:13;8.23;;;7.53;;
1693;SDS011;844;47.058;15.472;2023-04-09T10:23:53;6.67;;;5.97;;
1693;SDS011;844;47.058;15.472;2023-04-09T10:26:24;6.97;;;6.30;;
1693;SDS011;844;47.058;15.472;2023-04-09T10:29:02;6.73;;;6.13;;
1693;SDS011;844;47.058;15.472;2023-04-09T10:31:44;6.80;;;6.20;;
1693;SDS011;844;47.058;15.472;2023-04-09T10:34:17;6.80;;;5.80;;
1693;SDS011;844;47.058;15.472;2023-04-09T10:36:52;5.50;;;5.00;;
1693;SDS011;844;47.058;15.472;2023-04-09T10:39:25;5.87;;;5.27;;
1693;SDS011;844;47.058;15.472;2023-04-09T10:41:57;5.53;;;5.13;;
1693;SDS011;844;47.058;15.472;2023-04-09T10:44:28;6.07;;;5.47;;
1693;SDS011;844;47.058;15.472;2023-04-09T10:47:02;6.10;;;5.50;;
1693;SDS011;844;47.058;15.472;2023-04-09T10:49:34;5.40;;;4.90;;
1693;SDS011;844;47.058;15.472;2023-04-09T10:52:08;6.03;;;5.43;;
1693;SDS011;844;47.058;15.472;2023-04-09T10:54:44;6.27;;;5.70;;
1693;SDS011;844;47.058;15.472;2023-04-09T10:57:16;5.77;;;5.27;;
1693;SDS011;844;47.058;15.472;2023-04-09T10:59:48;7.13;;;6.50;;
1693;SDS011;844;47.058;15.472;2023-04-09T11:05:42;7.07;;;6.40;;
1693;SDS011;844;47.058;15.472;2023-04-09T11:08:18;7.03;;;6.43;;
1693;SDS011;844;47.058;15.472;2023-04-09T11:10:50;6.10;;;5.60;;
1693;SDS011;844;47.058;15.472;2023-04-09T11:13:24;6.67;;;5.97;;
1693;SDS011;844;47.058;15.472;2023-04-09T11:15:55;6.90;;;6.30;;
1693;SDS011;844;47.058;15.472;2023-04-09T11:18:28;7.63;;;7.00;;
1693;SDS011;844;47.058;15.472;2023-04-09T11:21:01;6.80;;;6.20;;
1693;SDS011;844;47.058;15.472;2023-04-09T11:23:33;7.30;;;6.70;;
1693;SDS011;844;47.058;15.472;2023-04-09T11:26:04;5.97;;;5.37;;
1693;SDS011;844;47.058;15.472;2023-04-09T11:28:35;7.47;;;6.83;;
1693;SDS011;844;47.058;15.472;2023-04-09T11:31:05;6.27;;;5.67;;
1693;SDS011;844;47.058;15.472;2023-04-09T11:33:35;6.33;;;5.73;;
1693;SDS011;844;47.058;15.472;2023-04-09T11:36:05;6.83;;;6.30;;
1693;SDS011;844;47.058;15.472;2023-04-09T11:38:38;6.13;;;5.63;;
1693;SDS011;844;47.058;15.472;2023-04-09T11:41:08;8.37;;;6.33;;
1693;SDS011;844;47.058;15.472;2023-04-09T11:43:41;6.90;;;6.30;;
1693;SDS011;844;47.058;15.472;2023-04-09T11:46:10;5.67;;;5.17;;
1693;SDS011;844;47.058;15.472;2023-04-09T11:48:41;7.00;;;6.40;;
1693;SDS011;844;47.058;15.472;2023-04-09T11:51:12;6.97;;;6.30;;
1693;SDS011;844;47.058;15.472;2023-04-09T11:53:44;6.50;;;5.90;;
1693;SDS011;844;47.058;15.472;2023-04-09T11:56:17;8.63;;;6.90;;
1693;SDS011;844;47.058;15.472;2023-04-09T11:58:49;7.37;;;6.70;;
1693;SDS011;844;47.058;15.472;2023-04-09T12:01:20;9.13;;;5.63;;
1693;SDS011;844;47.058;15.472;2023-04-09T12:03:51;6.37;;;5.87;;
1693;SDS011;844;47.058;15.472;2023-04-09T12:06:22;6.10;;;5.50;;
1693;SDS011;844;47.058;15.472;2023-04-09T12:08:56;5.57;;;5.07;;
1693;SDS011;844;47.058;15.472;2023-04-09T12:11:27;6.40;;;5.80;;
1693;SDS011;844;47.058;15.472;2023-04-09T12:13:58;6.60;;;6.03;;
1693;SDS011;844;47.058;15.472;2023-04-09T12:16:29;7.13;;;6.53;;
1693;SDS011;844;47.058;15.472;2023-04-09T12:19:00;6.93;;;6.10;;
1693;SDS011;844;47.058;15.472;2023-04-09T12:21:47;6.67;;;6.10;;
1693;SDS011;844;47.058;15.472;2023-04-09T12:24:21;6.33;;;5.73;;
1693;SDS011;844;47.058;15.472;2023-04-09T12:26:54;6.53;;;5.93;;
1693;SDS011;844;47.058;15.472;2023-04-09T12:29:24;6.37;;;5.77;;
1693;SDS011;844;47.058;15.472;2023-04-09T12:31:56;6.30;;;5.80;;
1693;SDS011;844;47.058;15.472;2023-04-09T12:34:26;6.67;;;6.07;;
1693;SDS011;844;47.058;15.472;2023-04-09T12:36:59;6.10;;;5.50;;
1693;SDS011;844;47.058;15.472;2023-04-09T12:39:31;6.50;;;5.93;;
1693;SDS011;844;47.058;15.472;2023-04-09T12:42:01;7.70;;;5.20;;
1693;SDS011;844;47.058;15.472;2023-04-09T12:44:31;5.60;;;5.10;;
1693;SDS011;844;47.058;15.472;2023-04-09T12:47:04;6.20;;;5.60;;
1693;SDS011;844;47.058;15.472;2023-04-09T12:49:35;6.00;;;5.40;;
1693;SDS011;844;47.058;15.472;2023-04-09T12:52:09;6.37;;;5.87;;
1693;SDS011;844;47.058;15.472;2023-04-09T12:54:41;6.37;;;5.77;;
1693;SDS011;844;47.058;15.472;2023-04-09T12:57:15;5.70;;;5.20;;
1693;SDS011;844;47.058;15.472;2023-04-09T12:59:45;6.17;;;5.67;;
1693;SDS011;844;47.058;15.472;2023-04-09T13:02:17;6.90;;;6.30;;
1693;SDS011;844;47.058;15.472;2023-04-09T13:04:48;5.43;;;4.93;;
1693;SDS011;844;47.058;15.472;2023-04-09T13:07:20;5.57;;;5.07;;
1693;SDS011;844;47.058;15.472;2023-04-09T13:09:54;5.50;;;5.00;;
1693;SDS011;844;47.058;15.472;2023-04-09T13:12:25;5.80;;;5.27;;
1693;SDS011;844;47.058;15.472;2023-04-09T13:14:57;6.00;;;5.50;;
1693;SDS011;844;47.058;15.472;2023-04-09T13:17:27;6.50;;;6.00;;
1693;SDS011;844;47.058;15.472;2023-04-09T13:19:59;6.30;;;5.70;;
1693;SDS011;844;47.058;15.472;2023-04-09T13:22:30;5.13;;;4.73;;
1693;SDS011;844;47.058;15.472;2023-04-09T13:25:03;5.83;;;5.23;;
1693;SDS011;844;47.058;15.472;2023-04-09T13:27:34;5.60;;;5.10;;
1693;SDS011;844;47.058;15.472;2023-04-09T13:30:06;5.97;;;5.47;;
1693;SDS011;844;47.058;15.472;2023-04-09T13:32:37;4.33;;;4.03;;
1693;SDS011;844;47.058;15.472;2023-04-09T13:35:10;4.87;;;4.43;;
1693;SDS011;844;47.058;15.472;2023-04-09T13:37:41;5.97;;;5.37;;
1693;SDS011;844;47.058;15.472;2023-04-09T13:40:13;4.60;;;4.20;;
1693;SDS011;844;47.058;15.472;2023-04-09T13:42:44;3.30;;;3.00;;
1693;SDS011;844;47.058;15.472;2023-04-09T13:45:14;3.90;;;3.50;;
1693;SDS011;844;47.058;15.472;2023-04-09T13:47:46;3.37;;;3.07;;
1693;SDS011;844;47.058;15.472;2023-04-09T13:50:18;4.60;;;4.20;;
1693;SDS011;844;47.058;15.472;2023-04-09T13:52:48;3.97;;;3.67;;
1693;SDS011;844;47.058;15.472;2023-04-09T13:55:20;4.00;;;3.70;;
1693;SDS011;844;47.058;15.472;2023-04-09T13:57:51;3.83;;;3.53;;
1693;SDS011;844;47.058;15.472;2023-04-09T14:00:23;4.07;;;3.67;;
1693;SDS011;844;47.058;15.472;2023-04-09T14:02:53;4.87;;;4.47;;
1693;SDS011;844;47.058;15.472;2023-04-09T14:05:24;4.43;;;3.77;;
1693;SDS011;844;47.058;15.472;2023-04-09T14:07:54;4.90;;;4.50;;
1693;SDS011;844;47.058;15.472;2023-04-09T14:10:27;3.97;;;3.67;;
1693;SDS011;844;47.058;15.472;2023-04-09T14:12:57;4.83;;;4.43;;
1693;SDS011;844;47.058;15.472;2023-04-09T14:15:33;4.60;;;4.20;;
1693;SDS011;844;47.058;15.472;2023-04-09T14:18:03;4.77;;;4.33;;
1693;SDS011;844;47.058;15.472;2023-04-09T14:20:33;5.90;;;5.40;;
1693;SDS011;844;47.058;15.472;2023-04-09T14:23:05;5.67;;;5.10;;
1693;SDS011;844;47.058;15.472;2023-04-09T14:25:38;4.20;;;3.90;;
1693;SDS011;844;47.058;15.472;2023-04-09T14:28:08;4.73;;;4.33;;
1693;SDS011;844;47.058;15.472;2023-04-09T14:30:39;5.13;;;4.70;;
1693;SDS011;844;47.058;15.472;2023-04-09T14:33:09;5.90;;;5.10;;
1693;SDS011;844;47.058;15.472;2023-04-09T14:35:39;5.93;;;4.80;;
1693;SDS011;844;47.058;15.472;2023-04-09T14:38:09;5.67;;;5.17;;
1693;SDS011;844;47.058;15.472;2023-04-09T14:40:41;5.43;;;4.90;;
1693;SDS011;844;47.058;15.472;2023-04-09T14:43:11;5.40;;;4.63;;
1693;SDS011;844;47.058;15.472;2023-04-09T14:45:41;5.30;;;4.80;;
1693;SDS011;844;47.058;15.472;2023-04-09T14:48:12;4.57;;;4.20;;
1693;SDS011;844;47.058;15.472;2023-04-09T14:50:43;3.83;;;3.53;;
1693;SDS011;844;47.058;15.472;2023-04-09T14:53:14;3.87;;;3.50;;
1693;SDS011;844;47.058;15.472;2023-04-09T14:55:47;5.53;;;5.03;;
1693;SDS011;844;47.058;15.472;2023-04-09T14:58:18;4.17;;;3.77;;
1693;SDS011;844;47.058;15.472;2023-04-09T15:00:49;4.50;;;4.10;;
1693;SDS011;844;47.058;15.472;2023-04-09T15:03:20;5.60;;;5.00;;
1693;SDS011;844;47.058;15.472;2023-04-09T15:05:51;5.07;;;4.20;;
1693;SDS011;844;47.058;15.472;2023-04-09T15:08:22;5.03;;;4.60;;
1693;SDS011;844;47.058;15.472;2023-04-09T15:10:55;5.40;;;4.73;;
1693;SDS011;844;47.058;15.472;2023-04-09T15:13:26;5.20;;;4.43;;
1693;SDS011;844;47.058;15.472;2023-04-09T15:15:57;6.37;;;5.83;;
1693;SDS011;844;47.058;15.472;2023-04-09T15:18:27;5.83;;;5.33;;
1693;SDS011;844;47.058;15.472;2023-04-09T15:20:59;6.17;;;5.43;;
1693;SDS011;844;47.058;15.472;2023-04-09T15:23:30;6.20;;;5.60;;
1693;SDS011;844;47.058;15.472;2023-04-09T15:26:03;6.30;;;5.70;;
1693;SDS011;844;47.058;15.472;2023-04-09T15:28:34;6.03;;;5.43;;
1693;SDS011;844;47.058;15.472;2023-04-09T15:31:04;6.83;;;4.80;;
1693;SDS011;844;47.058;15.472;2023-04-09T15:33:35;5.60;;;5.00;;